Time;durP1;ratioP1;P1;durP2;ratioP2;P2;SDS_P1;SDS_P2;PMS_P1;PMS_P2;Temp;Humidity;BMP_temperature;BMP_pressure;BME280_temperature;BME280_humidity;BME280_pressure;Samples;Min_cycle;Max_cycle;Signal;HPM_P1;HPM_P2
2021/10/10 00:00:58;;;;;;;;;;;;;;;;;;5069250;28;19924;-67
2021/10/10 00:03:26;;;;;;;;;;;;;;;;;;5072101;28;19928;-68
2021/10/10 00:05:52;;;;;;;;;;;;;;;;;;5067950;28;19931;-67
2021/10/10 00:08:19;;;;;;;;;;;;;;;;;;5069276;28;19924;-67
2021/10/10 00:10:46;;;;;;;;;;;;;;;;;;5070248;28;19947;-68
2021/10/10 00:13:13;;;;;;;;;;;;;;;;;;5068955;28;19924;-69
2021/10/10 00:15:40;;;;;;;;;;;;;;;;;;5065344;28;19938;-68
2021/10/10 00:18:07;;;;;;;;;;;;;;;;;;5068967;28;20304;-67
2021/10/10 00:20:34;;;;;;;;;;;;;;;;;;5066546;28;19943;-68
2021/10/10 00:23:01;;;;;;;;;;;;;;;;;;5069110;28;20152;-68
2021/10/10 00:25:28;;;;;;;;;;;;;;;;;;5069486;28;20285;-68
2021/10/10 00:27:56;;;;;;;;;;;;;;;;;;5069981;28;19928;-68
2021/10/10 00:30:23;;;;;;;;;;;;;;;;;;5067492;28;20454;-67
2021/10/10 00:32:50;;;;;;;;;;;;;;;;;;5064238;28;19924;-67
2021/10/10 00:35:17;;;;;;;;;;;;;;;;;;5062626;28;20012;-67
2021/10/10 00:37:44;;;;;;;;;;;;;;;;;;5062249;28;20390;-67
2021/10/10 00:40:11;;;;;;;;;;;;;;;;;;5064028;28;19939;-68
2021/10/10 00:42:38;;;;;;;;;;;;;;;;;;5068071;28;19924;-68
2021/10/10 00:45:05;;;;;;;;;;;;;;;;;;5064131;28;20327;-67
2021/10/10 00:47:32;;;;;;;;;;;;;;;;;;5065400;28;19935;-68
2021/10/10 00:49:59;;;;;;;;;;;;;;;;;;5065335;28;19935;-67
2021/10/10 00:52:26;;;;;;;;;;;;;;;;;;5069900;28;20334;-66
2021/10/10 00:54:53;;;;;;;;;;;;;;;;;;5067983;28;19925;-67
2021/10/10 00:57:20;;;;;;;;;;;;;;;;;;5068351;28;19935;-66
2021/10/10 00:59:47;;;;;;;;;;;;;;;;;;5066595;28;20426;-69
2021/10/10 01:02:14;;;;;;;;;;;;;;;;;;5070222;28;20399;-66
2021/10/10 01:04:41;;;;;;;;;;;;;;;;;;5064179;28;19955;-67
2021/10/10 01:07:08;;;;;;;;;;;;;;;;;;5067209;28;19929;-66
2021/10/10 01:09:35;;;;;;;;;;;;;;;;;;5070742;28;19929;-66
2021/10/10 01:12:02;;;;;;;;;;;;;;;;;;5065288;28;19930;-67
2021/10/10 01:14:29;;;;;;;;;;;;;;;;;;5060234;28;20543;-67
2021/10/10 01:16:56;;;;;;;;;;;;;;;;;;5067795;28;19932;-68
2021/10/10 01:19:23;;;;;;;;;;;;;;;;;;5066697;28;20319;-65
2021/10/10 01:21:50;;;;;;;;;;;;;;;;;;5068279;28;19932;-66
2021/10/10 01:24:17;;;;;;;;;;;;;;;;;;5065595;28;19979;-66
2021/10/10 01:26:44;;;;;;;;;;;;;;;;;;5064464;28;19924;-67
2021/10/10 01:29:11;;;;;;;;;;;;;;;;;;5065985;28;19933;-67
2021/10/10 01:31:38;;;;;;;;;;;;;;;;;;5067614;28;20380;-67
2021/10/10 01:34:05;;;;;;;;;;;;;;;;;;5065395;28;19924;-68
2021/10/10 01:36:32;;;;;;;;;;;;;;;;;;5070230;28;19925;-67
2021/10/10 01:38:59;;;;;;;;;;;;;;;;;;5067355;28;19931;-68
2021/10/10 01:41:26;;;;;;;;;;;;;;;;;;5068870;28;19928;-67
2021/10/10 01:43:53;;;;;;;;;;;;;;;;;;5065207;28;19930;-66
2021/10/10 01:46:20;;;;;;;;;;;;;;;;;;5063840;28;19925;-65
2021/10/10 01:48:47;;;;;;;;;;;;;;;;;;5062958;28;19924;-66
2021/10/10 01:51:14;;;;;;;;;;;;;;;;;;5065711;28;19924;-66
2021/10/10 01:53:41;;;;;;;;;;;;;;;;;;5066764;28;19935;-66
2021/10/10 01:56:08;;;;;;;;;;;;;;;;;;5067498;28;19924;-68
2021/10/10 01:58:35;;;;;;;;;;;;;;;;;;5066353;28;19943;-66
2021/10/10 02:01:02;;;;;;;;;;;;;;;;;;5068543;28;19994;-66
2021/10/10 02:03:29;;;;;;;;;;;;;;;;;;5063316;28;19931;-66
2021/10/10 02:05:56;;;;;;;;;;;;;;;;;;5069955;28;19932;-67
2021/10/10 02:08:23;;;;;;;;;;;;;;;;;;5066448;28;19924;-68
2021/10/10 02:10:50;;;;;;;;;;;;;;;;;;5064624;28;19924;-68
2021/10/10 02:13:17;;;;;;;;;;;;;;;;;;5069307;28;19939;-68
2021/10/10 02:15:44;;;;;;;;;;;;;;;;;;5068544;28;19931;-66
2021/10/10 02:18:11;;;;;;;;;;;;;;;;;;5070159;28;19929;-68
2021/10/10 02:20:38;;;;;;;;;;;;;;;;;;5068332;28;19931;-66
2021/10/10 02:23:05;;;;;;;;;;;;;;;;;;5071263;28;20395;-67
2021/10/10 02:25:32;;;;;;;;;;;;;;;;;;5066802;28;20019;-67
2021/10/10 02:27:59;;;;;;;;;;;;;;;;;;5067693;28;19927;-67
2021/10/10 02:30:26;;;;;;;;;;;;;;;;;;5069386;28;19979;-67
2021/10/10 02:32:53;;;;;;;;;;;;;;;;;;5071081;28;19925;-67
2021/10/10 02:35:20;;;;;;;;;;;;;;;;;;5069438;28;20398;-68
2021/10/10 02:37:47;;;;;;;;;;;;;;;;;;5069683;28;20596;-68
2021/10/10 02:40:14;;;;;;;;;;;;;;;;;;5071157;28;19932;-67
2021/10/10 02:42:41;;;;;;;;;;;;;;;;;;5071350;28;20023;-67
2021/10/10 02:45:08;;;;;;;;;;;;;;;;;;5067092;28;20098;-66
2021/10/10 02:47:35;;;;;;;;;;;;;;;;;;5068328;28;19924;-66
2021/10/10 02:50:02;;;;;;;;;;;;;;;;;;5070908;28;19931;-67
2021/10/10 02:52:28;;;;;;;;;;;;;;;;;;5066451;28;20308;-68
2021/10/10 02:54:55;;;;;;;;;;;;;;;;;;5069688;28;20308;-67
2021/10/10 02:57:22;;;;;;;;;;;;;;;;;;5070331;28;19924;-68
2021/10/10 02:59:49;;;;;;;;;;;;;;;;;;5069460;28;19925;-67
2021/10/10 03:02:16;;;;;;;;;;;;;;;;;;5071188;28;19936;-68
2021/10/10 03:04:43;;;;;;;;;;;;;;;;;;5066945;28;20307;-68
2021/10/10 03:07:10;;;;;;;;;;;;;;;;;;5066563;28;19936;-67
2021/10/10 03:09:37;;;;;;;;;;;;;;;;;;5062530;28;19929;-67
2021/10/10 03:12:04;;;;;;;;;;;;;;;;;;5071017;28;20303;-67
2021/10/10 03:14:31;;;;;;;;;;;;;;;;;;5064971;28;20303;-67
2021/10/10 03:16:58;;;;;;;;;;;;;;;;;;5072555;28;19939;-67
2021/10/10 03:19:25;;;;;;;;;;;;;;;;;;5069673;28;19925;-67
2021/10/10 03:21:52;;;;;;;;;;;;;;;;;;5066834;28;20303;-66
2021/10/10 03:24:19;;;;;;;;;;;;;;;;;;5065850;28;19935;-67
2021/10/10 03:26:46;;;;;;;;;;;;;;;;;;5069175;28;19939;-67
2021/10/10 03:29:13;;;;;;;;;;;;;;;;;;5062494;28;20013;-67
2021/10/10 03:31:40;;;;;;;;;;;;;;;;;;5068536;28;19931;-66
2021/10/10 03:34:07;;;;;;;;;;;;;;;;;;5064014;28;19936;-66
2021/10/10 03:36:34;;;;;;;;;;;;;;;;;;5068546;28;19932;-67
2021/10/10 03:39:01;;;;;;;;;;;;;;;;;;5064088;28;20392;-68
2021/10/10 03:41:28;;;;;;;;;;;;;;;;;;5065456;28;19931;-67
2021/10/10 03:43:55;;;;;;;;;;;;;;;;;;5066982;28;19928;-66
2021/10/10 03:46:22;;;;;;;;;;;;;;;;;;5075550;28;19925;-69
2021/10/10 03:48:49;;;;;;;;;;;;;;;;;;5068167;28;19935;-66
2021/10/10 03:51:16;;;;;;;;;;;;;;;;;;5065361;28;20362;-66
2021/10/10 03:54:13;;;;;;;;;;;;;;;;;;5066372;28;19929;-66
2021/10/10 03:56:40;;;;;;;;;;;;;;;;;;5065567;28;20364;-66
2021/10/10 03:59:07;;;;;;;;;;;;;;;;;;5063050;28;19943;-67
2021/10/10 04:01:34;;;;;;;;;;;;;;;;;;5063505;28;19935;-67
2021/10/10 04:04:01;;;;;;;;;;;;;;;;;;5067913;28;19925;-67
2021/10/10 04:06:28;;;;;;;;;;;;;;;;;;5068356;28;19924;-67
2021/10/10 04:08:55;;;;;;;;;;;;;;;;;;5066514;28;20460;-67
2021/10/10 04:11:22;;;;;;;;;;;;;;;;;;5064730;28;20270;-67
2021/10/10 04:13:49;;;;;;;;;;;;;;;;;;5060382;28;19928;-67
2021/10/10 04:16:16;;;;;;;;;;;;;;;;;;5066483;28;19928;-67
2021/10/10 04:18:43;;;;;;;;;;;;;;;;;;5062754;28;19932;-67
2021/10/10 04:21:10;;;;;;;;;;;;;;;;;;5065866;28;19924;-67
2021/10/10 04:23:37;;;;;;;;;;;;;;;;;;5064593;28;20488;-67
2021/10/10 04:26:04;;;;;;;;;;;;;;;;;;5067074;28;19925;-67
2021/10/10 04:28:31;;;;;;;;;;;;;;;;;;5068147;28;19924;-67
2021/10/10 04:30:58;;;;;;;;;;;;;;;;;;5061147;28;19928;-67
2021/10/10 04:33:24;;;;;;;;;;;;;;;;;;5066255;28;19925;-67
2021/10/10 04:35:51;;;;;;;;;;;;;;;;;;5068331;28;20387;-67
2021/10/10 04:38:18;;;;;;;;;;;;;;;;;;5067397;28;19930;-67
2021/10/10 04:40:45;;;;;;;;;;;;;;;;;;5064938;28;20008;-67
2021/10/10 04:43:12;;;;;;;;;;;;;;;;;;5067396;28;20323;-67
2021/10/10 04:45:39;;;;;;;;;;;;;;;;;;5064884;28;19931;-67
2021/10/10 04:48:06;;;;;;;;;;;;;;;;;;5064884;28;19928;-67
2021/10/10 04:50:33;;;;;;;;;;;;;;;;;;5068161;28;19960;-67
2021/10/10 04:53:00;;;;;;;;;;;;;;;;;;5067856;28;19924;-67
2021/10/10 04:55:27;;;;;;;;;;;;;;;;;;5067983;28;19948;-67
2021/10/10 04:57:54;;;;;;;;;;;;;;;;;;5066487;28;19940;-66
2021/10/10 05:00:21;;;;;;;;;;;;;;;;;;5070784;28;20035;-67
2021/10/10 05:02:48;;;;;;;;;;;;;;;;;;5069594;28;19971;-67
2021/10/10 05:05:15;;;;;;;;;;;;;;;;;;5068455;28;20392;-67
2021/10/10 05:07:42;;;;;;;;;;;;;;;;;;5071564;28;19934;-67
2021/10/10 05:10:09;;;;;;;;;;;;;;;;;;5070645;28;19948;-67
2021/10/10 05:12:36;;;;;;;;;;;;;;;;;;5069608;28;20193;-67
2021/10/10 05:15:03;;;;;;;;;;;;;;;;;;5068435;28;19931;-67
2021/10/10 05:17:30;;;;;;;;;;;;;;;;;;5070309;28;20385;-67
2021/10/10 05:19:57;;;;;;;;;;;;;;;;;;5067742;28;20021;-67
2021/10/10 05:22:24;;;;;;;;;;;;;;;;;;5065110;28;19935;-67
2021/10/10 05:24:54;;;;;;;;;;;;;;;;;;5068138;28;19928;-67
2021/10/10 05:27:21;;;;;;;;;;;;;;;;;;5067674;28;19924;-67
2021/10/10 05:29:48;;;;;;;;;;;;;;;;;;5068492;28;19932;-67
2021/10/10 05:32:15;;;;;;;;;;;;;;;;;;5067006;28;19935;-67
2021/10/10 05:34:42;;;;;;;;;;;;;;;;;;5063498;28;19936;-68
2021/10/10 05:37:09;;;;;;;;;;;;;;;;;;5070632;28;19924;-67
2021/10/10 05:39:36;;;;;;;;;;;;;;;;;;5068496;28;19925;-67
2021/10/10 05:42:03;;;;;;;;;;;;;;;;;;5067499;28;19929;-67
2021/10/10 05:44:30;;;;;;;;;;;;;;;;;;5068704;28;19931;-67
2021/10/10 05:46:56;;;;;;;;;;;;;;;;;;5070712;28;19929;-67
2021/10/10 05:49:23;;;;;;;;;;;;;;;;;;5073384;28;19924;-67
2021/10/10 05:51:51;;;;;;;;;;;;;;;;;;5070222;28;19930;-67
2021/10/10 05:54:18;;;;;;;;;;;;;;;;;;5069194;28;19986;-67
2021/10/10 05:56:45;;;;;;;;;;;;;;;;;;5073067;28;20273;-68
2021/10/10 05:59:15;;;;;;;;;;;;;;;;;;5074443;28;19931;-67
2021/10/10 06:01:42;;;;;;;;;;;;;;;;;;5073617;28;19931;-67
2021/10/10 06:04:09;;;;;;;;;;;;;;;;;;5071574;28;19940;-68
2021/10/10 06:06:36;;;;;;;;;;;;;;;;;;5072413;28;19931;-67
2021/10/10 06:09:03;;;;;;;;;;;;;;;;;;5066140;28;20015;-67
2021/10/10 06:11:30;;;;;;;;;;;;;;;;;;5072720;28;20171;-66
2021/10/10 06:13:58;;;;;;;;;;;;;;;;;;5066514;28;20341;-67
2021/10/10 06:16:25;;;;;;;;;;;;;;;;;;5071919;28;19924;-67
2021/10/10 06:18:52;;;;;;;;;;;;;;;;;;5067439;28;20376;-67
2021/10/10 06:21:19;;;;;;;;;;;;;;;;;;5070615;28;20398;-67
2021/10/10 06:23:46;;;;;;;;;;;;;;;;;;5072463;28;19964;-67
2021/10/10 06:26:13;;;;;;;;;;;;;;;;;;5068973;28;19928;-68
2021/10/10 06:28:40;;;;;;;;;;;;;;;;;;5069295;28;20266;-67
2021/10/10 06:31:07;;;;;;;;;;;;;;;;;;5067240;28;19951;-67
2021/10/10 06:33:34;;;;;;;;;;;;;;;;;;5068976;28;19931;-67
2021/10/10 06:36:01;;;;;;;;;;;;;;;;;;5067922;28;19933;-68
2021/10/10 06:38:28;;;;;;;;;;;;;;;;;;5071288;28;19925;-68
2021/10/10 06:40:55;;;;;;;;;;;;;;;;;;5071725;28;20380;-68
2021/10/10 06:43:22;;;;;;;;;;;;;;;;;;5071355;28;19930;-68
2021/10/10 06:45:49;;;;;;;;;;;;;;;;;;5064123;28;19931;-68
2021/10/10 06:48:16;;;;;;;;;;;;;;;;;;5069905;28;20369;-68
2021/10/10 06:50:43;;;;;;;;;;;;;;;;;;5068441;28;19931;-68
2021/10/10 06:53:10;;;;;;;;;;;;;;;;;;5071151;28;19924;-68
2021/10/10 06:55:37;;;;;;;;;;;;;;;;;;5066401;28;19928;-68
2021/10/10 06:58:04;;;;;;;;;;;;;;;;;;5071875;28;19946;-68
2021/10/10 07:00:31;;;;;;;;;;;;;;;;;;5068791;28;19935;-67
2021/10/10 07:03:00;;;;;;;;;;;;;;;;;;5063015;28;19931;-68
2021/10/10 07:05:27;;;;;;;;;;;;;;;;;;5068046;28;19939;-68
2021/10/10 07:07:54;;;;;;;;;;;;;;;;;;5070078;28;19924;-68
2021/10/10 07:10:21;;;;;;;;;;;;;;;;;;5069113;28;20299;-68
2021/10/10 07:12:48;;;;;;;;;;;;;;;;;;5063656;28;19932;-68
2021/10/10 07:15:15;;;;;;;;;;;;;;;;;;5067487;28;19937;-66
2021/10/10 07:17:45;;;;;;;;;;;;;;;;;;5068098;28;20029;-66
2021/10/10 07:20:14;;;;;;;;;;;;;;;;;;5069248;28;19932;-65
2021/10/10 07:22:46;;;;;;;;;;;;;;;;;;5068239;28;20388;-65
2021/10/10 07:25:13;;;;;;;;;;;;;;;;;;5067210;28;19928;-65
2021/10/10 07:27:40;;;;;;;;;;;;;;;;;;5068589;28;19924;-67
2021/10/10 07:30:07;;;;;;;;;;;;;;;;;;5067255;28;19939;-66
2021/10/10 07:32:34;;;;;;;;;;;;;;;;;;5067303;28;19924;-66
2021/10/10 07:35:01;;;;;;;;;;;;;;;;;;5067873;28;19928;-66
2021/10/10 07:37:28;;;;;;;;;;;;;;;;;;5064421;28;19929;-66
2021/10/10 07:39:55;;;;;;;;;;;;;;;;;;5068796;28;19924;-66
2021/10/10 07:42:22;;;;;;;;;;;;;;;;;;5066558;28;19932;-66
2021/10/10 07:44:50;;;;;;;;;;;;;;;;;;5066261;28;19925;-66
2021/10/10 07:47:29;;;;;;;;;;;;;;;;;;5065774;28;20351;-65
2021/10/10 07:49:56;;;;;;;;;;;;;;;;;;5065055;28;19940;-66
2021/10/10 07:52:24;;;;;;;;;;;;;;;;;;5068655;28;19924;-66
2021/10/10 07:54:51;;;;;;;;;;;;;;;;;;5064074;28;20277;-66
2021/10/10 07:57:18;;;;;;;;;;;;;;;;;;5070989;28;20498;-66
2021/10/10 07:59:45;;;;;;;;;;;;;;;;;;5068780;28;19931;-66
2021/10/10 08:02:12;;;;;;;;;;;;;;;;;;5065894;28;19956;-66
2021/10/10 08:04:39;;;;;;;;;;;;;;;;;;5065248;28;19932;-66
2021/10/10 08:07:06;;;;;;;;;;;;;;;;;;5066756;28;19924;-66
2021/10/10 08:09:33;;;;;;;;;;;;;;;;;;5067601;28;20295;-66
2021/10/10 08:12:00;;;;;;;;;;;;;;;;;;5068610;28;19931;-66
2021/10/10 08:14:27;;;;;;;;;;;;;;;;;;5065932;28;20311;-67
2021/10/10 08:16:54;;;;;;;;;;;;;;;;;;5066528;28;19924;-66
2021/10/10 08:19:21;;;;;;;;;;;;;;;;;;5066445;28;19928;-66
2021/10/10 08:21:49;;;;;;;;;;;;;;;;;;5069000;28;19928;-66
2021/10/10 08:24:18;;;;;;;;;;;;;;;;;;5065605;28;20026;-66
2021/10/10 08:26:45;;;;;;;;;;;;;;;;;;5067290;28;20379;-67
2021/10/10 08:29:12;;;;;;;;;;;;;;;;;;5068891;28;19974;-67
2021/10/10 08:31:39;;;;;;;;;;;;;;;;;;5065863;28;20330;-67
2021/10/10 08:34:06;;;;;;;;;;;;;;;;;;5063305;28;19948;-68
2021/10/10 08:36:32;;;;;;;;;;;;;;;;;;5066523;28;19931;-66
2021/10/10 08:38:59;;;;;;;;;;;;;;;;;;5069964;28;19924;-67
2021/10/10 08:41:30;;;;;;;;;;;;;;;;;;5066095;28;19932;-67
2021/10/10 08:43:57;;;;;;;;;;;;;;;;;;5064953;28;19928;-67
2021/10/10 08:46:25;;;;;;;;;;;;;;;;;;5064147;28;20125;-67
2021/10/10 08:48:52;;;;;;;;;;;;;;;;;;5067684;28;20331;-66
2021/10/10 08:51:19;;;;;;;;;;;;;;;;;;5069361;28;20259;-67
2021/10/10 08:53:47;;;;;;;;;;;;;;;;;;5065579;28;19938;-67
2021/10/10 08:56:14;;;;;;;;;;;;;;;;;;5066269;28;19924;-67
2021/10/10 08:58:42;;;;;;;;;;;;;;;;;;5066826;28;19935;-66
2021/10/10 09:01:15;;;;;;;;;;;;;;;;;;5067510;28;19947;-66
2021/10/10 09:03:42;;;;;;;;;;;;;;;;;;5063690;28;19932;-66
2021/10/10 09:06:09;;;;;;;;;;;;;;;;;;5063118;28;20418;-66
2021/10/10 09:08:36;;;;;;;;;;;;;;;;;;5064526;28;19925;-67
2021/10/10 09:11:03;;;;;;;;;;;;;;;;;;5063709;28;19935;-67
2021/10/10 09:13:30;;;;;;;;;;;;;;;;;;5064962;28;20092;-66
2021/10/10 09:15:57;;;;;;;;;;;;;;;;;;5068413;28;19999;-66
2021/10/10 09:18:24;;;;;;;;;;;;;;;;;;5068677;28;20447;-67
2021/10/10 09:20:51;;;;;;;;;;;;;;;;;;5070297;28;19932;-67
2021/10/10 09:23:18;;;;;;;;;;;;;;;;;;5066900;28;20305;-66
2021/10/10 09:25:45;;;;;;;;;;;;;;;;;;5070558;28;19989;-66
2021/10/10 09:28:12;;;;;;;;;;;;;;;;;;5073215;28;19925;-66
2021/10/10 09:30:39;;;;;;;;;;;;;;;;;;5073391;28;19931;-66
2021/10/10 09:33:06;;;;;;;;;;;;;;;;;;5069384;28;20405;-66
2021/10/10 09:35:34;;;;;;;;;;;;;;;;;;5070230;28;19924;-66
2021/10/10 09:38:05;;;;;;;;;;;;;;;;;;5066925;28;19928;-66
2021/10/10 09:40:33;;;;;;;;;;;;;;;;;;5072817;28;19925;-66
2021/10/10 09:43:00;;;;;;;;;;;;;;;;;;5082268;22;19927;-62
2021/10/10 09:45:30;;;;;;;;;;;;;;;;;;5047626;28;20312;-60
2021/10/10 09:47:58;;;;;;;;;;;;;;;;;;5051917;28;19924;-60
2021/10/10 09:50:25;;;;;;;;;;;;;;;;;;5051274;28;19924;-61
2021/10/10 09:52:52;;;;;;;;;;;;;;;;;;5047270;28;19931;-61
2021/10/10 09:55:20;;;;;;;;;;;;;;;;;;5029470;28;19925;-61
2021/10/10 09:57:47;;;;;;;;;;;;;;;;;;5031470;28;20387;-61
2021/10/10 10:00:14;;;;;;;;;;;;;;;;;;5030993;28;19979;-61
2021/10/10 10:02:41;;;;;;;;;;;;;;;;;;5033590;28;19932;-61
2021/10/10 10:05:08;;;;;;;;;;;;;;;;;;5027795;28;20036;-61
2021/10/10 10:07:35;;;;;;;;;;;;;;;;;;5033224;28;19925;-61
2021/10/10 10:10:02;;;;;;;;;;;;;;;;;;5031765;28;19929;-60
2021/10/10 10:12:30;;;;;;;;;;;;;;;;;;5033852;28;20407;-61
2021/10/10 10:14:59;;;;;;;;;;;;;;;;;;5033952;28;20036;-61
2021/10/10 10:17:27;;;;;;;;;;;;;;;;;;5034063;28;19929;-61
2021/10/10 10:19:54;;;;;;;;;;;;;;;;;;5022260;28;19933;-61
2021/10/10 10:22:21;;;;;;;;;;;;;;;;;;5024298;28;19925;-62
2021/10/10 10:24:48;;;;;;;;;;;;;;;;;;5025988;28;19936;-61
2021/10/10 10:27:15;;;;;;;;;;;;;;;;;;5028812;28;19929;-61
2021/10/10 10:29:42;;;;;;;;;;;;;;;;;;5030494;28;19929;-62
2021/10/10 10:32:09;;;;;;;;;;;;;;;;;;5029728;28;19931;-61
2021/10/10 10:34:36;;;;;;;;;;;;;;;;;;5025774;28;19925;-62
2021/10/10 10:37:03;;;;;;;;;;;;;;;;;;5031633;28;19929;-61
2021/10/10 10:39:30;;;;;;;;;;;;;;;;;;5024665;28;20381;-62
2021/10/10 10:41:57;;;;;;;;;;;;;;;;;;5030900;28;19925;-61
2021/10/10 10:44:24;;;;;;;;;;;;;;;;;;5031170;28;19929;-62
2021/10/10 10:46:51;;;;;;;;;;;;;;;;;;5029177;28;20245;-61
2021/10/10 10:49:18;;;;;;;;;;;;;;;;;;5032685;28;19925;-61
2021/10/10 10:51:45;;;;;;;;;;;;;;;;;;5029088;28;19925;-62
2021/10/10 10:54:12;;;;;;;;;;;;;;;;;;5025466;28;19968;-61
2021/10/10 10:56:39;;;;;;;;;;;;;;;;;;5030652;28;19948;-62
2021/10/10 10:59:06;;;;;;;;;;;;;;;;;;5030750;28;19932;-61
2021/10/10 11:01:33;;;;;;;;;;;;;;;;;;5030099;28;20312;-62
2021/10/10 11:04:00;;;;;;;;;;;;;;;;;;5025836;28;19925;-62
2021/10/10 11:06:27;;;;;;;;;;;;;;;;;;5023681;28;19925;-61
2021/10/10 11:08:54;;;;;;;;;;;;;;;;;;5020047;28;20037;-60
2021/10/10 11:11:22;;;;;;;;;;;;;;;;;;5022211;28;19933;-61
2021/10/10 11:13:48;;;;;;;;;;;;;;;;;;5026443;28;19925;-61
2021/10/10 11:16:15;;;;;;;;;;;;;;;;;;5027530;28;19929;-61
2021/10/10 11:18:42;;;;;;;;;;;;;;;;;;5023142;28;20902;-62
2021/10/10 11:21:09;;;;;;;;;;;;;;;;;;5026555;28;19925;-62
2021/10/10 11:23:36;;;;;;;;;;;;;;;;;;5025893;28;19968;-62
2021/10/10 11:26:03;;;;;;;;;;;;;;;;;;5023152;28;19929;-61
2021/10/10 11:28:30;;;;;;;;;;;;;;;;;;5028806;28;19930;-61
2021/10/10 11:30:57;;;;;;;;;;;;;;;;;;5027311;28;19936;-62
2021/10/10 11:33:24;;;;;;;;;;;;;;;;;;5029132;28;19932;-62
2021/10/10 11:35:51;;;;;;;;;;;;;;;;;;5024859;28;20005;-61
2021/10/10 11:38:20;;;;;;;;;;;;;;;;;;5026345;28;19926;-62
2021/10/10 11:40:47;;;;;;;;;;;;;;;;;;5027635;28;20024;-60
2021/10/10 11:43:14;;;;;;;;;;;;;;;;;;5027004;28;19931;-61
2021/10/10 11:45:41;;;;;;;;;;;;;;;;;;5028629;28;19925;-60
2021/10/10 11:48:09;;;;;;;;;;;;;;;;;;5030068;28;20393;-61
2021/10/10 11:50:36;;;;;;;;;;;;;;;;;;5026911;28;19926;-62
2021/10/10 11:53:04;;;;;;;;;;;;;;;;;;5024876;28;19940;-61
2021/10/10 11:55:36;;;;;;;;;;;;;;;;;;5027710;28;19971;-61
2021/10/10 11:58:03;;;;;;;;;;;;;;;;;;5029652;28;20260;-60
2021/10/10 12:00:30;;;;;;;;;;;;;;;;;;5028854;28;19929;-61
2021/10/10 12:02:57;;;;;;;;;;;;;;;;;;5026552;28;19933;-62
2021/10/10 12:05:24;;;;;;;;;;;;;;;;;;5026872;28;19929;-62
2021/10/10 12:07:52;;;;;;;;;;;;;;;;;;5026516;28;19925;-62
2021/10/10 12:10:19;;;;;;;;;;;;;;;;;;5027509;28;19929;-63
2021/10/10 12:12:46;;;;;;;;;;;;;;;;;;5029336;28;19925;-61
2021/10/10 12:15:13;;;;;;;;;;;;;;;;;;5026240;28;20179;-61
2021/10/10 12:17:40;;;;;;;;;;;;;;;;;;5026448;28;20031;-62
2021/10/10 12:20:07;;;;;;;;;;;;;;;;;;5023135;28;19925;-62
2021/10/10 12:22:34;;;;;;;;;;;;;;;;;;5027206;28;20424;-60
2021/10/10 12:25:01;;;;;;;;;;;;;;;;;;5027880;28;19925;-61
2021/10/10 12:27:28;;;;;;;;;;;;;;;;;;5027512;28;19947;-62
2021/10/10 12:29:55;;;;;;;;;;;;;;;;;;5028415;28;20028;-62
2021/10/10 12:32:22;;;;;;;;;;;;;;;;;;5025626;28;19932;-62
2021/10/10 12:34:48;;;;;;;;;;;;;;;;;;5028067;28;20305;-62
2021/10/10 12:37:15;;;;;;;;;;;;;;;;;;5021888;28;19933;-63
2021/10/10 12:39:42;;;;;;;;;;;;;;;;;;5028557;28;20381;-63
2021/10/10 12:42:09;;;;;;;;;;;;;;;;;;5027985;28;19947;-63
2021/10/10 12:44:37;;;;;;;;;;;;;;;;;;5025270;28;19925;-62
2021/10/10 12:47:06;;;;;;;;;;;;;;;;;;5023715;28;19929;-63
2021/10/10 12:49:33;;;;;;;;;;;;;;;;;;5025917;28;19931;-62
2021/10/10 12:52:00;;;;;;;;;;;;;;;;;;5020616;28;21314;-62
2021/10/10 12:54:27;;;;;;;;;;;;;;;;;;5023548;28;20399;-62
2021/10/10 12:56:54;;;;;;;;;;;;;;;;;;5022208;28;19932;-61
2021/10/10 12:59:21;;;;;;;;;;;;;;;;;;5023668;28;19944;-61
2021/10/10 13:01:48;;;;;;;;;;;;;;;;;;5024155;28;20014;-60
2021/10/10 13:04:15;;;;;;;;;;;;;;;;;;5025051;28;19926;-62
2021/10/10 13:06:42;;;;;;;;;;;;;;;;;;5022942;28;19931;-61
2021/10/10 13:09:09;;;;;;;;;;;;;;;;;;5027069;28;20011;-62
2021/10/10 13:11:36;;;;;;;;;;;;;;;;;;5024046;28;19933;-61
2021/10/10 13:14:04;;;;;;;;;;;;;;;;;;5025271;28;19925;-61
2021/10/10 13:16:31;;;;;;;;;;;;;;;;;;5019995;28;19931;-61
2021/10/10 13:18:58;;;;;;;;;;;;;;;;;;5016877;28;20393;-61
2021/10/10 13:21:25;;;;;;;;;;;;;;;;;;5018743;28;19925;-61
2021/10/10 13:23:52;;;;;;;;;;;;;;;;;;5022966;28;20301;-60
2021/10/10 13:26:20;;;;;;;;;;;;;;;;;;5023434;28;19964;-60
2021/10/10 13:28:47;;;;;;;;;;;;;;;;;;5021294;28;20015;-61
2021/10/10 13:31:14;;;;;;;;;;;;;;;;;;5027130;28;19929;-61
2021/10/10 13:33:41;;;;;;;;;;;;;;;;;;5025449;28;19948;-60
2021/10/10 13:36:08;;;;;;;;;;;;;;;;;;5026490;28;19926;-60
2021/10/10 13:38:35;;;;;;;;;;;;;;;;;;5028007;28;19929;-60
2021/10/10 13:41:02;;;;;;;;;;;;;;;;;;5025137;28;19925;-60
2021/10/10 13:43:30;;;;;;;;;;;;;;;;;;5028135;28;19969;-60
2021/10/10 13:45:57;;;;;;;;;;;;;;;;;;5025815;28;20146;-60
2021/10/10 13:48:24;;;;;;;;;;;;;;;;;;5027564;28;19995;-60
2021/10/10 13:50:51;;;;;;;;;;;;;;;;;;5023754;28;20016;-60
2021/10/10 13:53:18;;;;;;;;;;;;;;;;;;5026574;28;19929;-60
2021/10/10 13:55:45;;;;;;;;;;;;;;;;;;5027058;28;20292;-59
2021/10/10 13:58:12;;;;;;;;;;;;;;;;;;5024897;28;19931;-61
2021/10/10 14:00:41;;;;;;;;;;;;;;;;;;5024515;28;20395;-61
2021/10/10 14:03:07;;;;;;;;;;;;;;;;;;5025989;28;19960;-61
2021/10/10 14:05:34;;;;;;;;;;;;;;;;;;5025460;28;19939;-61
2021/10/10 14:08:01;;;;;;;;;;;;;;;;;;5024280;28;20381;-61
2021/10/10 14:10:28;;;;;;;;;;;;;;;;;;5026240;28;19925;-61
2021/10/10 14:12:55;;;;;;;;;;;;;;;;;;5031689;28;19926;-60
2021/10/10 14:15:22;;;;;;;;;;;;;;;;;;5029698;28;19925;-61
2021/10/10 14:17:49;;;;;;;;;;;;;;;;;;5028344;28;20270;-61
2021/10/10 14:20:19;;;;;;;;;;;;;;;;;;5028772;28;19925;-60
2021/10/10 14:22:46;;;;;;;;;;;;;;;;;;5027644;28;19932;-61
2021/10/10 14:25:13;;;;;;;;;;;;;;;;;;5029930;28;20397;-61
2021/10/10 14:27:39;;;;;;;;;;;;;;;;;;5027068;28;20012;-61
2021/10/10 14:30:08;;;;;;;;;;;;;;;;;;5028649;28;19929;-61
2021/10/10 14:32:35;;;;;;;;;;;;;;;;;;5031108;28;19925;-61
2021/10/10 14:35:02;;;;;;;;;;;;;;;;;;5029129;28;20282;-61
2021/10/10 14:37:29;;;;;;;;;;;;;;;;;;5030221;28;19931;-60
2021/10/10 14:39:57;;;;;;;;;;;;;;;;;;5028402;28;20000;-61
2021/10/10 14:42:30;;;;;;;;;;;;;;;;;;5030187;28;19933;-61
2021/10/10 14:45:06;;;;;;;;;;;;;;;;;;5027752;28;19925;-61
2021/10/10 14:50:29;;;;;;;;;;;;;;;;;;4984177;28;19983;-61
2021/10/10 14:52:56;;;;;;;;;;;;;;;;;;5018172;28;20035;-60
2021/10/10 14:55:23;;;;;;;;;;;;;;;;;;5028887;28;19929;-61
2021/10/10 14:57:52;;;;;;;;;;;;;;;;;;5026651;28;19943;-61
2021/10/10 15:00:20;;;;;;;;;;;;;;;;;;5023403;28;20012;-61
2021/10/10 15:02:47;;;;;;;;;;;;;;;;;;5026265;28;19929;-60
2021/10/10 15:05:14;;;;;;;;;;;;;;;;;;5026248;28;19929;-62
2021/10/10 15:07:42;;;;;;;;;;;;;;;;;;5026794;28;19925;-62
2021/10/10 15:10:09;;;;;;;;;;;;;;;;;;5027645;28;19941;-63
2021/10/10 15:12:36;;;;;;;;;;;;;;;;;;5023990;28;19932;-63
2021/10/10 15:15:03;;;;;;;;;;;;;;;;;;5028950;28;19925;-62
2021/10/10 15:17:30;;;;;;;;;;;;;;;;;;5028769;28;19984;-63
2021/10/10 15:19:58;;;;;;;;;;;;;;;;;;5026823;28;19932;-62
2021/10/10 15:22:24;;;;;;;;;;;;;;;;;;5026832;28;20252;-62
2021/10/10 15:24:51;;;;;;;;;;;;;;;;;;5026657;28;19925;-63
2021/10/10 15:27:18;;;;;;;;;;;;;;;;;;5025664;28;19985;-63
2021/10/10 15:29:45;;;;;;;;;;;;;;;;;;5027863;28;20308;-62
2021/10/10 15:32:12;;;;;;;;;;;;;;;;;;5029007;28;19925;-63
2021/10/10 15:34:39;;;;;;;;;;;;;;;;;;5026891;28;19943;-63
2021/10/10 15:37:06;;;;;;;;;;;;;;;;;;5029383;28;20411;-62
2021/10/10 15:39:34;;;;;;;;;;;;;;;;;;5028814;28;19931;-63
2021/10/10 15:42:01;;;;;;;;;;;;;;;;;;5025064;28;19932;-63
2021/10/10 15:44:28;;;;;;;;;;;;;;;;;;5029001;28;19932;-62
2021/10/10 15:46:54;;;;;;;;;;;;;;;;;;5026757;28;19929;-61
2021/10/10 15:49:21;;;;;;;;;;;;;;;;;;5026704;28;19929;-61
2021/10/10 15:51:49;;;;;;;;;;;;;;;;;;5026227;28;19976;-61
2021/10/10 15:54:16;;;;;;;;;;;;;;;;;;5025575;28;19935;-63
2021/10/10 15:56:43;;;;;;;;;;;;;;;;;;5024092;28;19929;-61
2021/10/10 15:59:10;;;;;;;;;;;;;;;;;;5024606;28;19929;-62
2021/10/10 16:01:37;;;;;;;;;;;;;;;;;;5026194;28;19925;-62
2021/10/10 16:04:04;;;;;;;;;;;;;;;;;;5026724;28;19929;-62
2021/10/10 16:06:31;;;;;;;;;;;;;;;;;;5025444;28;19929;-62
2021/10/10 16:08:58;;;;;;;;;;;;;;;;;;5024885;28;20385;-61
2021/10/10 16:11:25;;;;;;;;;;;;;;;;;;5025935;28;19947;-62
2021/10/10 16:13:52;;;;;;;;;;;;;;;;;;5020747;28;19925;-61
2021/10/10 16:16:19;;;;;;;;;;;;;;;;;;5025716;28;19932;-62
2021/10/10 16:18:46;;;;;;;;;;;;;;;;;;5020724;28;20381;-61
2021/10/10 16:21:13;;;;;;;;;;;;;;;;;;5023820;28;19925;-61
2021/10/10 16:23:40;;;;;;;;;;;;;;;;;;5026683;28;20407;-61
2021/10/10 16:26:07;;;;;;;;;;;;;;;;;;5026537;28;19929;-61
2021/10/10 16:28:34;;;;;;;;;;;;;;;;;;5022533;28;19933;-61
2021/10/10 16:31:02;;;;;;;;;;;;;;;;;;5025170;28;19932;-62
2021/10/10 16:33:32;;;;;;;;;;;;;;;;;;5024711;28;19932;-62
2021/10/10 16:36:03;;;;;;;;;;;;;;;;;;5024633;28;19933;-62
2021/10/10 16:38:35;;;;;;;;;;;;;;;;;;5025791;28;19929;-62
2021/10/10 16:41:12;;;;;;;;;;;;;;;;;;5028257;28;20313;-62
2021/10/10 16:43:39;;;;;;;;;;;;;;;;;;5024428;28;19929;-62
2021/10/10 16:46:06;;;;;;;;;;;;;;;;;;5026434;28;20020;-62
2021/10/10 16:48:33;;;;;;;;;;;;;;;;;;5025631;28;19925;-62